Temp: 12.1°C   Baro: 1033.6mb
  Wind: 2.9mph   Dir: NW (305°)
  Rain: 0.0mm (0.0mm/hr)
  Solar: 167W/m2  Hum: 85%
 
Cotswold Observatory Historical Data
Daily Summary for November 09, 2018 Units:  Both    English   Metric
Next Day »
Daily Weekly Monthly Yearly Custom
  High: Low: Average:
Temperature: 55.8 °F /  13.2 °C 48.9 °F /  9.4 °C 52.2 °F /  11.2 °C
Dew Point: 52.3 °F /  11.3 °C 45.9 °F /  7.7 °C 48.6 °F /  9.2 °C
Humidity: 93% 74% 88%
Wind Speed: 25.9mph /  41.7km/h - 5.8mph /  9.4km/h
Wind Gust: 34mph /  54.7km/h - -
Wind direction- - South
Pressure: 29.8 in /  1008.0 hPa 29.2 in /  988.4 hPa -
Precipitation: 0.69 in /  17.5 mm    
Historical Graphs
 
 
Tabular Data for November 09, 2018
Time Temperature Dew Point Pressure Wind direction Wind Speed Wind Gust Humidity Rainfall Rate (Hourly) solar
00:04 49.5 °F /  9.7 °C 46.4 °F /  8.0 °C 29.8in /  1008.0hPa East 2mph /  3.2km/h 3mph /  4.8km/h 89% 0in /  0.0mm 0.00 W/m2
00:09 49.3 °F /  9.6 °C 46.2 °F /  7.9 °C 29.8in /  1008.0hPa SSE 8.9mph /  14.3km/h 10mph /  16.1km/h 89% 0in /  0.0mm 0.00 W/m2
00:14 49.1 °F /  9.5 °C 46 °F /  7.8 °C 29.8in /  1008.0hPa SSE 4mph /  6.4km/h 5mph /  8.0km/h 89% 0in /  0.0mm 0.00 W/m2
00:19 48.9 °F /  9.4 °C 45.9 °F /  7.7 °C 29.8in /  1007.7hPa SE 4.9mph /  7.9km/h 8mph /  12.9km/h 89% 0in /  0.0mm 0.00 W/m2
00:24 48.9 °F /  9.4 °C 46 °F /  7.8 °C 29.8in /  1007.7hPa SSE 6mph /  9.7km/h 9mph /  14.5km/h 90% 0in /  0.0mm 0.00 W/m2
00:29 48.9 °F /  9.4 °C 46 °F /  7.8 °C 29.8in /  1007.7hPa SSE 6mph /  9.7km/h 11mph /  17.7km/h 90% 0in /  0.0mm 0.00 W/m2
00:34 49.1 °F /  9.5 °C 46.2 °F /  7.9 °C 29.8in /  1007.7hPa SE 4.9mph /  7.9km/h 9mph /  14.5km/h 90% 0in /  0.0mm 0.00 W/m2
00:39 49.1 °F /  9.5 °C 46.2 °F /  7.9 °C 29.8in /  1007.7hPa SE 2.9mph /  4.7km/h 8mph /  12.9km/h 90% 0in /  0.0mm 0.00 W/m2
00:44 49.1 °F /  9.5 °C 46.2 °F /  7.9 °C 29.8in /  1007.7hPa SE 6.9mph /  11.1km/h 9mph /  14.5km/h 90% 0in /  0.0mm 0.00 W/m2
00:49 49.1 °F /  9.5 °C 46.2 °F /  7.9 °C 29.7in /  1007.3hPa SSE 4.9mph /  7.9km/h 8mph /  12.9km/h 90% 0in /  0.0mm 0.00 W/m2
00:54 49.1 °F /  9.5 °C 46.2 °F /  7.9 °C 29.7in /  1007.3hPa SSE 4mph /  6.4km/h 8mph /  12.9km/h 90% 0in /  0.0mm 0.00 W/m2
00:59 49.3 °F /  9.6 °C 46.4 °F /  8.0 °C 29.7in /  1007.3hPa ESE 2mph /  3.2km/h 5mph /  8.0km/h 90% 0in /  0.0mm 0.00 W/m2
01:04 49.3 °F /  9.6 °C 46.4 °F /  8.0 °C 29.7in /  1007.3hPa South 4mph /  6.4km/h 6mph /  9.7km/h 90% 0in /  0.0mm 0.00 W/m2
01:09 49.3 °F /  9.6 °C 46.4 °F /  8.0 °C 29.7in /  1007.3hPa SSE 4mph /  6.4km/h 8mph /  12.9km/h 90% 0in /  0.0mm 0.00 W/m2
01:14 49.3 °F /  9.6 °C 46.4 °F /  8.0 °C 29.8in /  1007.7hPa SSE 2mph /  3.2km/h 8mph /  12.9km/h 90% 0in /  0.0mm 0.00 W/m2
01:19 49.5 °F /  9.7 °C 46.6 °F /  8.1 °C 29.7in /  1007.3hPa SSE 2.9mph /  4.7km/h 6mph /  9.7km/h 90% 0in /  0.0mm 0.00 W/m2
01:24 49.5 °F /  9.7 °C 46.6 °F /  8.1 °C 29.7in /  1007.3hPa SSE 2mph /  3.2km/h 4mph /  6.4km/h 90% 0in /  0.0mm 0.00 W/m2
01:29 49.5 °F /  9.7 °C 46.6 °F /  8.1 °C 29.7in /  1007.3hPa SE 4.9mph /  7.9km/h 5mph /  8.0km/h 90% 0in /  0.0mm 0.00 W/m2
01:34 49.5 °F /  9.7 °C 46.6 °F /  8.1 °C 29.7in /  1007.3hPa SE 4mph /  6.4km/h 7mph /  11.3km/h 90% 0in /  0.0mm 0.00 W/m2
01:39 49.5 °F /  9.7 °C 46.6 °F /  8.1 °C 29.7in /  1007.3hPa South 4mph /  6.4km/h 6mph /  9.7km/h 90% 0in /  0.0mm 0.00 W/m2
01:44 49.6 °F /  9.8 °C 46.8 °F /  8.2 °C 29.7in /  1007.3hPa SE 4mph /  6.4km/h 6mph /  9.7km/h 90% 0in /  0.0mm 0.00 W/m2
01:49 49.6 °F /  9.8 °C 47.1 °F /  8.4 °C 29.7in /  1007.0hPa SSE 4.9mph /  7.9km/h 5mph /  8.0km/h 91% 0in /  0.0mm 0.00 W/m2
01:54 49.6 °F /  9.8 °C 47.1 °F /  8.4 °C 29.7in /  1007.0hPa SSE 4.9mph /  7.9km/h 8mph /  12.9km/h 91% 0in /  0.0mm 0.00 W/m2
01:59 49.6 °F /  9.8 °C 47.1 °F /  8.4 °C 29.7in /  1007.0hPa SE 4mph /  6.4km/h 5mph /  8.0km/h 91% 0in /  0.0mm 0.00 W/m2
02:04 49.6 °F /  9.8 °C 47.1 °F /  8.4 °C 29.7in /  1007.0hPa SSE 4mph /  6.4km/h 9mph /  14.5km/h 91% 0in /  0.0mm 0.00 W/m2
02:09 49.6 °F /  9.8 °C 47.1 °F /  8.4 °C 29.7in /  1007.0hPa SSE 6mph /  9.7km/h 7mph /  11.3km/h 91% 0in /  0.0mm 0.00 W/m2
02:14 49.6 °F /  9.8 °C 47.1 °F /  8.4 °C 29.7in /  1007.0hPa SSE 2mph /  3.2km/h 6mph /  9.7km/h 91% 0in /  0.0mm 0.00 W/m2
02:19 49.8 °F /  9.9 °C 47.3 °F /  8.5 °C 29.7in /  1007.0hPa SE 2mph /  3.2km/h 6mph /  9.7km/h 91% 0in /  0.0mm 0.00 W/m2
02:24 49.8 °F /  9.9 °C 47.3 °F /  8.5 °C 29.7in /  1007.0hPa SE 8.1mph /  13.0km/h 8mph /  12.9km/h 91% 0in /  0.0mm 0.00 W/m2
02:29 49.8 °F /  9.9 °C 47.3 °F /  8.5 °C 29.7in /  1006.7hPa SSE 2.9mph /  4.7km/h 8mph /  12.9km/h 91% 0in /  0.0mm 0.00 W/m2
02:34 49.8 °F /  9.9 °C 47.3 °F /  8.5 °C 29.7in /  1006.7hPa SSE 2.9mph /  4.7km/h 9mph /  14.5km/h 91% 0in /  0.0mm 0.00 W/m2
02:39 49.8 °F /  9.9 °C 47.3 °F /  8.5 °C 29.7in /  1006.7hPa SSE 2.9mph /  4.7km/h 8mph /  12.9km/h 91% 0in /  0.0mm 0.00 W/m2
02:44 49.8 °F /  9.9 °C 46.9 °F /  8.3 °C 29.7in /  1006.7hPa SSE 4mph /  6.4km/h 7mph /  11.3km/h 90% 0in /  0.0mm 0.00 W/m2
02:49 49.8 °F /  9.9 °C 47.3 °F /  8.5 °C 29.7in /  1006.3hPa SE 2.9mph /  4.7km/h 8mph /  12.9km/h 91% 0in /  0.0mm 0.00 W/m2
02:54 49.6 °F /  9.8 °C 46.8 °F /  8.2 °C 29.7in /  1006.3hPa SSE 0.9mph /  1.4km/h 5mph /  8.0km/h 90% 0in /  0.0mm 0.00 W/m2
02:59 49.8 °F /  9.9 °C 46.9 °F /  8.3 °C 29.7in /  1006.3hPa SSE 2mph /  3.2km/h 7mph /  11.3km/h 90% 0in /  0.0mm 0.00 W/m2
03:04 49.8 °F /  9.9 °C 46.9 °F /  8.3 °C 29.7in /  1006.3hPa SSE 2.9mph /  4.7km/h 6mph /  9.7km/h 90% 0in /  0.0mm 0.00 W/m2
03:09 49.8 °F /  9.9 °C 46.9 °F /  8.3 °C 29.7in /  1006.3hPa SSE 4mph /  6.4km/h 8mph /  12.9km/h 90% 0in /  0.0mm 0.00 W/m2
03:14 50 °F /  10.0 °C 47.1 °F /  8.4 °C 29.7in /  1006.3hPa SSE 2mph /  3.2km/h 6mph /  9.7km/h 90% 0in /  0.0mm 0.00 W/m2
03:19 50 °F /  10.0 °C 47.1 °F /  8.4 °C 29.7in /  1006.3hPa SE 2.9mph /  4.7km/h 8mph /  12.9km/h 90% 0in /  0.0mm 0.00 W/m2
03:24 50 °F /  10.0 °C 47.1 °F /  8.4 °C 29.7in /  1006.3hPa SE 2mph /  3.2km/h 3mph /  4.8km/h 90% 0in /  0.0mm 0.00 W/m2
03:29 49.8 °F /  9.9 °C 46.9 °F /  8.3 °C 29.7in /  1006.0hPa SE 2mph /  3.2km/h 4mph /  6.4km/h 90% 0in /  0.0mm 0.00 W/m2
03:34 49.8 °F /  9.9 °C 46.9 °F /  8.3 °C 29.7in /  1006.0hPa SE 4.9mph /  7.9km/h 7mph /  11.3km/h 90% 0in /  0.0mm 0.00 W/m2
03:39 49.6 °F /  9.8 °C 46.8 °F /  8.2 °C 29.7in /  1006.0hPa SE 2.9mph /  4.7km/h 5mph /  8.0km/h 90% 0in /  0.0mm 0.00 W/m2
03:44 49.6 °F /  9.8 °C 46.8 °F /  8.2 °C 29.7in /  1006.0hPa SE 0.9mph /  1.4km/h 6mph /  9.7km/h 90% 0in /  0.0mm 0.00 W/m2
03:49 49.6 °F /  9.8 °C 46.8 °F /  8.2 °C 29.7in /  1006.0hPa SE 2.9mph /  4.7km/h 7mph /  11.3km/h 90% 0in /  0.0mm 0.00 W/m2
03:54 49.6 °F /  9.8 °C 47.1 °F /  8.4 °C 29.7in /  1006.0hPa ESE 4mph /  6.4km/h 7mph /  11.3km/h 91% 0in /  0.0mm 0.00 W/m2
03:59 49.8 °F /  9.9 °C 47.3 °F /  8.5 °C 29.7in /  1006.0hPa SE 0.9mph /  1.4km/h 9mph /  14.5km/h 91% 0in /  0.0mm 0.00 W/m2
04:04 50 °F /  10.0 °C 47.1 °F /  8.4 °C 29.7in /  1006.0hPa SE 2.9mph /  4.7km/h 3mph /  4.8km/h 90% 0in /  0.0mm 0.00 W/m2
04:09 50.2 °F /  10.1 °C 47.3 °F /  8.5 °C 29.7in /  1006.0hPa SE 4.9mph /  7.9km/h 7mph /  11.3km/h 90% 0in /  0.0mm 0.00 W/m2
04:14 50 °F /  10.0 °C 47.1 °F /  8.4 °C 29.7in /  1006.0hPa SE 2.9mph /  4.7km/h 4mph /  6.4km/h 90% 0in /  0.0mm 0.00 W/m2
04:19 50 °F /  10.0 °C 47.1 °F /  8.4 °C 29.7in /  1006.0hPa SSE 0.9mph /  1.4km/h 4mph /  6.4km/h 90% 0in /  0.0mm 0.00 W/m2
04:24 50 °F /  10.0 °C 47.1 °F /  8.4 °C 29.7in /  1006.0hPa SSE 6mph /  9.7km/h 6mph /  9.7km/h 90% 0in /  0.0mm 0.00 W/m2
04:29 50.2 °F /  10.1 °C 47.3 °F /  8.5 °C 29.7in /  1005.6hPa SE 2mph /  3.2km/h 6mph /  9.7km/h 90% 0in /  0.0mm 0.00 W/m2
04:34 50 °F /  10.0 °C 47.1 °F /  8.4 °C 29.7in /  1006.0hPa SE 2.9mph /  4.7km/h 3mph /  4.8km/h 90% 0in /  0.0mm 0.00 W/m2
04:39 50 °F /  10.0 °C 47.1 °F /  8.4 °C 29.7in /  1006.0hPa Calm   2mph /  3.2km/h 90% 0in /  0.0mm 0.00 W/m2
04:44 49.8 °F /  9.9 °C 46.9 °F /  8.3 °C 29.7in /  1005.6hPa SE 2mph /  3.2km/h 2mph /  3.2km/h 90% 0in /  0.0mm 0.00 W/m2
04:49 49.8 °F /  9.9 °C 47.3 °F /  8.5 °C 29.7in /  1005.6hPa SE 2.9mph /  4.7km/h 4mph /  6.4km/h 91% 0in /  0.0mm 0.00 W/m2
04:54 49.8 °F /  9.9 °C 47.3 °F /  8.5 °C 29.7in /  1005.6hPa SSE 2.9mph /  4.7km/h 6mph /  9.7km/h 91% 0in /  0.0mm 0.00 W/m2
04:59 49.8 °F /  9.9 °C 47.3 °F /  8.5 °C 29.7in /  1005.6hPa ESE 2.9mph /  4.7km/h 5mph /  8.0km/h 91% 0in /  0.0mm 0.00 W/m2
05:04 50 °F /  10.0 °C 47.5 °F /  8.6 °C 29.7in /  1005.6hPa SE 4mph /  6.4km/h 5mph /  8.0km/h 91% 0in /  0.0mm 0.00 W/m2
05:09 50.2 °F /  10.1 °C 47.7 °F /  8.7 °C 29.7in /  1005.6hPa ESE 4mph /  6.4km/h 4mph /  6.4km/h 91% 0in /  0.0mm 0.00 W/m2
05:14 50.2 °F /  10.1 °C 47.7 °F /  8.7 °C 29.7in /  1005.6hPa SE 2mph /  3.2km/h 4mph /  6.4km/h 91% 0in /  0.0mm 0.00 W/m2
05:19 50.2 °F /  10.1 °C 47.7 °F /  8.7 °C 29.7in /  1005.6hPa ESE 4mph /  6.4km/h 8mph /  12.9km/h 91% 0in /  0.0mm 0.00 W/m2
05:24 50.2 °F /  10.1 °C 47.3 °F /  8.5 °C 29.7in /  1005.6hPa SE 2mph /  3.2km/h 4mph /  6.4km/h 90% 0in /  0.0mm 0.00 W/m2
05:29 50.2 °F /  10.1 °C 47.3 °F /  8.5 °C 29.7in /  1005.6hPa SSE 2mph /  3.2km/h 7mph /  11.3km/h 90% 0in /  0.0mm 0.00 W/m2
05:34 50.2 °F /  10.1 °C 47.3 °F /  8.5 °C 29.7in /  1005.3hPa SE 4mph /  6.4km/h 7mph /  11.3km/h 90% 0in /  0.0mm 0.00 W/m2
05:39 50.2 °F /  10.1 °C 47.3 °F /  8.5 °C 29.7in /  1005.3hPa SE 6.9mph /  11.1km/h 9mph /  14.5km/h 90% 0in /  0.0mm 0.00 W/m2
05:44 50 °F /  10.0 °C 47.5 °F /  8.6 °C 29.7in /  1005.3hPa SE 4mph /  6.4km/h 6mph /  9.7km/h 91% 0in /  0.0mm 0.00 W/m2
05:49 49.8 °F /  9.9 °C 47.3 °F /  8.5 °C 29.7in /  1005.3hPa SE 4.9mph /  7.9km/h 6mph /  9.7km/h 91% 0in /  0.0mm 0.00 W/m2
05:54 49.8 °F /  9.9 °C 47.3 °F /  8.5 °C 29.7in /  1005.3hPa ESE 2.9mph /  4.7km/h 7mph /  11.3km/h 91% 0in /  0.0mm 0.00 W/m2
05:59 49.6 °F /  9.8 °C 47.1 °F /  8.4 °C 29.7in /  1005.3hPa SSE 4mph /  6.4km/h 6mph /  9.7km/h 91% 0in /  0.0mm 0.00 W/m2
06:04 49.6 °F /  9.8 °C 47.1 °F /  8.4 °C 29.7in /  1005.0hPa SE 2.9mph /  4.7km/h 6mph /  9.7km/h 91% 0in /  0.0mm 0.00 W/m2
06:09 49.5 °F /  9.7 °C 46.9 °F /  8.3 °C 29.7in /  1005.0hPa SSE 2mph /  3.2km/h 5mph /  8.0km/h 91% 0in /  0.0mm 0.00 W/m2
06:14 49.5 °F /  9.7 °C 46.9 °F /  8.3 °C 29.7in /  1005.0hPa SSE 2mph /  3.2km/h 5mph /  8.0km/h 91% 0in /  0.0mm 0.00 W/m2
06:19 49.5 °F /  9.7 °C 46.9 °F /  8.3 °C 29.7in /  1005.0hPa SE 2mph /  3.2km/h 4mph /  6.4km/h 91% 0in /  0.0mm 0.00 W/m2
06:24 49.5 °F /  9.7 °C 46.9 °F /  8.3 °C 29.7in /  1005.0hPa SSE 2mph /  3.2km/h 5mph /  8.0km/h 91% 0in /  0.0mm 0.00 W/m2
06:29 49.5 °F /  9.7 °C 46.9 °F /  8.3 °C 29.7in /  1005.0hPa SSE 0.9mph /  1.4km/h 5mph /  8.0km/h 91% 0in /  0.0mm 0.00 W/m2
06:34 49.5 °F /  9.7 °C 46.9 °F /  8.3 °C 29.7in /  1005.0hPa Calm   1mph /  1.6km/h 91% 0in /  0.0mm 0.00 W/m2
06:39 49.5 °F /  9.7 °C 47.3 °F /  8.5 °C 29.7in /  1005.0hPa Calm     92% 0in /  0.0mm 0.00 W/m2
06:44 49.6 °F /  9.8 °C 47.5 °F /  8.6 °C 29.7in /  1005.0hPa East 0.9mph /  1.4km/h 3mph /  4.8km/h 92% 0in /  0.0mm 0.00 W/m2
06:49 49.6 °F /  9.8 °C 47.5 °F /  8.6 °C 29.7in /  1005.0hPa SSE 2.9mph /  4.7km/h 6mph /  9.7km/h 92% 0in /  0.0mm 0.00 W/m2
06:54 49.8 °F /  9.9 °C 47.7 °F /  8.7 °C 29.7in /  1005.0hPa Calm   4mph /  6.4km/h 92% 0in /  0.0mm 0.00 W/m2
06:59 50 °F /  10.0 °C 47.8 °F /  8.8 °C 29.7in /  1004.6hPa East 2.9mph /  4.7km/h 6mph /  9.7km/h 92% 0in /  0.0mm 0.00 W/m2
07:04 50.2 °F /  10.1 °C 48 °F /  8.9 °C 29.7in /  1004.6hPa SE 4mph /  6.4km/h 7mph /  11.3km/h 92% 0in /  0.0mm 0.00 W/m2
07:09 50.2 °F /  10.1 °C 48 °F /  8.9 °C 29.7in /  1004.6hPa ESE 6.9mph /  11.1km/h 8mph /  12.9km/h 92% 0in /  0.0mm 0.00 W/m2
07:14 50.4 °F /  10.2 °C 48.2 °F /  9.0 °C 29.7in /  1004.6hPa ESE 4mph /  6.4km/h 9mph /  14.5km/h 92% 0in /  0.0mm 0.00 W/m2
07:19 50.4 °F /  10.2 °C 48.2 °F /  9.0 °C 29.7in /  1004.6hPa SE 4.9mph /  7.9km/h 7mph /  11.3km/h 92% 0in /  0.0mm 0.00 W/m2
07:24 50.4 °F /  10.2 °C 48.2 °F /  9.0 °C 29.7in /  1004.6hPa ESE 4mph /  6.4km/h 8mph /  12.9km/h 92% 0in /  0.0mm 0.00 W/m2
07:29 50.4 °F /  10.2 °C 48.2 °F /  9.0 °C 29.7in /  1004.6hPa East 6mph /  9.7km/h 6mph /  9.7km/h 92% 0in /  0.0mm 0.00 W/m2
07:34 50.4 °F /  10.2 °C 48.2 °F /  9.0 °C 29.7in /  1004.6hPa SE 2mph /  3.2km/h 5mph /  8.0km/h 92% 0in /  0.0mm 5.00 W/m2
07:39 50.4 °F /  10.2 °C 48.2 °F /  9.0 °C 29.7in /  1004.6hPa ESE 2mph /  3.2km/h 4mph /  6.4km/h 92% 0in /  0.0mm 7.00 W/m2
07:44 50.4 °F /  10.2 °C 48.2 °F /  9.0 °C 29.7in /  1004.3hPa SE 0.9mph /  1.4km/h 4mph /  6.4km/h 92% 0in /  0.0mm 11.00 W/m2
07:49 50.5 °F /  10.3 °C 48.4 °F /  9.1 °C 29.7in /  1004.3hPa SE 0.9mph /  1.4km/h 7mph /  11.3km/h 92% 0in /  0.0mm 9.00 W/m2
07:54 50.5 °F /  10.3 °C 48.4 °F /  9.1 °C 29.7in /  1004.3hPa South 4mph /  6.4km/h 7mph /  11.3km/h 92% 0in /  0.0mm 9.00 W/m2
07:59 50.5 °F /  10.3 °C 48.4 °F /  9.1 °C 29.6in /  1003.9hPa South 2mph /  3.2km/h 5mph /  8.0km/h 92% 0in /  0.0mm 7.00 W/m2
08:03 50.5 °F /  10.3 °C 48.4 °F /  9.1 °C 29.6in /  1003.9hPa ESE 4mph /  6.4km/h 6mph /  9.7km/h 92% 0in /  0.0mm 7.00 W/m2
08:09 50.7 °F /  10.4 °C 48.6 °F /  9.2 °C 29.6in /  1003.9hPa SE 2mph /  3.2km/h 4mph /  6.4km/h 92% 0in /  0.0mm 9.00 W/m2
08:14 50.7 °F /  10.4 °C 48.6 °F /  9.2 °C 29.6in /  1003.9hPa ESE 2mph /  3.2km/h 5mph /  8.0km/h 92% 0in /  0.0mm 16.00 W/m2
08:19 50.9 °F /  10.5 °C 48.7 °F /  9.3 °C 29.6in /  1003.9hPa SSE 0.9mph /  1.4km/h 3mph /  4.8km/h 92% 0in /  0.0mm 19.00 W/m2
08:24 51.1 °F /  10.6 °C 48.9 °F /  9.4 °C 29.6in /  1003.9hPa SSE 0.9mph /  1.4km/h 5mph /  8.0km/h 92% 0in /  0.0mm 19.00 W/m2
08:29 51.3 °F /  10.7 °C 49.1 °F /  9.5 °C 29.6in /  1003.6hPa SE 4mph /  6.4km/h 5mph /  8.0km/h 92% 0in /  0.0mm 32.00 W/m2
08:34 51.3 °F /  10.7 °C 49.1 °F /  9.5 °C 29.6in /  1003.6hPa SE 0.9mph /  1.4km/h 6mph /  9.7km/h 92% 0in /  0.0mm 42.00 W/m2
08:39 51.4 °F /  10.8 °C 49.3 °F /  9.6 °C 29.6in /  1003.6hPa SE 2.9mph /  4.7km/h 4mph /  6.4km/h 92% 0in /  0.0mm 37.00 W/m2
08:44 51.6 °F /  10.9 °C 49.5 °F /  9.7 °C 29.6in /  1003.3hPa South 4.9mph /  7.9km/h 7mph /  11.3km/h 92% 0in /  0.0mm 40.00 W/m2
08:49 51.8 °F /  11.0 °C 49.6 °F /  9.8 °C 29.6in /  1003.3hPa SSE 2.9mph /  4.7km/h 5mph /  8.0km/h 92% 0in /  0.0mm 49.00 W/m2
08:54 52.2 °F /  11.2 °C 49.6 °F /  9.8 °C 29.6in /  1003.3hPa South 4mph /  6.4km/h 9mph /  14.5km/h 91% 0in /  0.0mm 74.00 W/m2
08:59 52.3 °F /  11.3 °C 49.5 °F /  9.7 °C 29.6in /  1003.3hPa South 6mph /  9.7km/h 10mph /  16.1km/h 90% 0in /  0.0mm 62.00 W/m2
09:04 52.7 °F /  11.5 °C 49.5 °F /  9.7 °C 29.6in /  1003.3hPa South 8.9mph /  14.3km/h 11mph /  17.7km/h 89% 0in /  0.0mm 74.00 W/m2
09:09 53.1 °F /  11.7 °C 49.3 °F /  9.6 °C 29.6in /  1003.3hPa SSW 4.9mph /  7.9km/h 11mph /  17.7km/h 87% 0in /  0.0mm 62.00 W/m2
09:14 53.2 °F /  11.8 °C 49.5 °F /  9.7 °C 29.6in /  1002.9hPa SSE 4.9mph /  7.9km/h 10mph /  16.1km/h 87% 0in /  0.0mm 76.00 W/m2
09:19 53.2 °F /  11.8 °C 49.5 °F /  9.7 °C 29.6in /  1002.9hPa SE 6mph /  9.7km/h 8mph /  12.9km/h 87% 0in /  0.0mm 84.00 W/m2
09:24 53.2 °F /  11.8 °C 49.1 °F /  9.5 °C 29.6in /  1002.9hPa SSE 6.9mph /  11.1km/h 12mph /  19.3km/h 86% 0in /  0.0mm 81.00 W/m2
09:29 53.4 °F /  11.9 °C 49.3 °F /  9.6 °C 29.6in /  1002.6hPa South 8.1mph /  13.0km/h 8mph /  12.9km/h 86% 0in /  0.0mm 91.00 W/m2
09:34 53.6 °F /  12.0 °C 49.5 °F /  9.7 °C 29.6in /  1002.6hPa South 6mph /  9.7km/h 10mph /  16.1km/h 86% 0in /  0.0mm 60.00 W/m2
09:39 53.6 °F /  12.0 °C 49.3 °F /  9.6 °C 29.6in /  1002.6hPa SSE 4mph /  6.4km/h 10mph /  16.1km/h 85% 0in /  0.0mm 54.00 W/m2
09:44 53.8 °F /  12.1 °C 49.5 °F /  9.7 °C 29.6in /  1002.6hPa SSE 2mph /  3.2km/h 11mph /  17.7km/h 85% 0in /  0.0mm 58.00 W/m2
09:49 53.8 °F /  12.1 °C 49.6 °F /  9.8 °C 29.6in /  1002.3hPa South 6mph /  9.7km/h 9mph /  14.5km/h 86% 0in /  0.0mm 39.00 W/m2
09:54 53.8 °F /  12.1 °C 49.5 °F /  9.7 °C 29.6in /  1002.3hPa South 6mph /  9.7km/h 8mph /  12.9km/h 85% 0in /  0.0mm 47.00 W/m2
09:59 53.8 °F /  12.1 °C 49.6 °F /  9.8 °C 29.6in /  1002.3hPa SSE 4.9mph /  7.9km/h 10mph /  16.1km/h 86% 0in /  0.0mm 51.00 W/m2
10:04 53.8 °F /  12.1 °C 49.6 °F /  9.8 °C 29.6in /  1002.3hPa South 2.9mph /  4.7km/h 7mph /  11.3km/h 86% 0in /  0.0mm 53.00 W/m2
10:09 53.8 °F /  12.1 °C 49.6 °F /  9.8 °C 29.6in /  1001.9hPa SSE 6mph /  9.7km/h 8mph /  12.9km/h 86% 0in /  0.0mm 40.00 W/m2
10:14 53.8 °F /  12.1 °C 49.6 °F /  9.8 °C 29.6in /  1001.9hPa East 4mph /  6.4km/h 9mph /  14.5km/h 86% 0in /  0.0mm 54.00 W/m2
10:19 53.8 °F /  12.1 °C 49.6 °F /  9.8 °C 29.6in /  1001.9hPa South 6mph /  9.7km/h 8mph /  12.9km/h 86% 0in /  0.0mm 39.00 W/m2
10:24 53.8 °F /  12.1 °C 49.6 °F /  9.8 °C 29.6in /  1001.6hPa SSE 4mph /  6.4km/h 8mph /  12.9km/h 86% 0in /  0.0mm 28.00 W/m2
10:29 53.8 °F /  12.1 °C 49.6 °F /  9.8 °C 29.6in /  1001.6hPa SE 6.9mph /  11.1km/h 8mph /  12.9km/h 86% 0in /  0.0mm 32.00 W/m2
10:34 53.8 °F /  12.1 °C 50 °F /  10.0 °C 29.6in /  1001.6hPa SSE 6mph /  9.7km/h 8mph /  12.9km/h 87% 0in /  0.0mm 30.00 W/m2
10:39 53.8 °F /  12.1 °C 50 °F /  10.0 °C 29.6in /  1001.6hPa SSW 0.9mph /  1.4km/h 6mph /  9.7km/h 87% 0in /  0.0mm 25.00 W/m2
10:44 53.8 °F /  12.1 °C 50.4 °F /  10.2 °C 29.6in /  1001.6hPa SE 6.9mph /  11.1km/h 8mph /  12.9km/h 88% 0in /  0.0mm 18.00 W/m2
10:49 53.4 °F /  11.9 °C 50.2 °F /  10.1 °C 29.6in /  1001.6hPa SSE 2mph /  3.2km/h 9mph /  14.5km/h 89% 0in /  0.0mm 26.00 W/m2
10:54 53.2 °F /  11.8 °C 50 °F /  10.0 °C 29.6in /  1001.2hPa SE 4mph /  6.4km/h 10mph /  16.1km/h 89% 0in /  0.0mm 77.00 W/m2
10:59 53.2 °F /  11.8 °C 50.4 °F /  10.2 °C 29.6in /  1001.2hPa South 6mph /  9.7km/h 9mph /  14.5km/h 90% 0in /  0.0mm 60.00 W/m2
11:04 53.4 °F /  11.9 °C 50.5 °F /  10.3 °C 29.6in /  1001.2hPa SSE 4.9mph /  7.9km/h 8mph /  12.9km/h 90% 0in /  0.0mm 83.00 W/m2
11:09 53.4 °F /  11.9 °C 50.5 °F /  10.3 °C 29.6in /  1001.2hPa SSE 8.1mph /  13.0km/h 11mph /  17.7km/h 90% 0in /  0.0mm 98.00 W/m2
11:14 53.8 °F /  12.1 °C 50.9 °F /  10.5 °C 29.6in /  1001.2hPa SSW 2.9mph /  4.7km/h 9mph /  14.5km/h 90% 0in /  0.0mm 79.00 W/m2
11:19 54 °F /  12.2 °C 50.7 °F /  10.4 °C 29.6in /  1001.2hPa SSW 4.9mph /  7.9km/h 8mph /  12.9km/h 89% 0in /  0.0mm 37.00 W/m2
11:24 54.1 °F /  12.3 °C 51.3 °F /  10.7 °C 29.6in /  1001.2hPa SSW 6.9mph /  11.1km/h 7mph /  11.3km/h 90% 0in /  0.0mm 74.00 W/m2
11:29 54.1 °F /  12.3 °C 50.7 °F /  10.4 °C 29.6in /  1001.2hPa SW 4.9mph /  7.9km/h 16mph /  25.7km/h 88% 0in /  0.0mm 167.00 W/m2
11:34 54.3 °F /  12.4 °C 50.2 °F /  10.1 °C 29.6in /  1001.2hPa WSW 14.1mph /  22.7km/h 15mph /  24.1km/h 86% 0in /  0.0mm 176.00 W/m2
11:39 54.5 °F /  12.5 °C 50 °F /  10.0 °C 29.6in /  1001.6hPa WSW 2.9mph /  4.7km/h 8mph /  12.9km/h 85% 0in /  0.0mm 185.00 W/m2
11:44 54.5 °F /  12.5 °C 49.8 °F /  9.9 °C 29.6in /  1001.6hPa West 8.9mph /  14.3km/h 12mph /  19.3km/h 84% 0in /  0.0mm 213.00 W/m2
11:49 54.3 °F /  12.4 °C 48.6 °F /  9.2 °C 29.6in /  1001.6hPa WSW 8.1mph /  13.0km/h 21mph /  33.8km/h 81% 0in /  0.0mm 213.00 W/m2
11:54 54.3 °F /  12.4 °C 48.6 °F /  9.2 °C 29.6in /  1001.6hPa West 8.9mph /  14.3km/h 19mph /  30.6km/h 81% 0in /  0.0mm 197.00 W/m2
11:59 54.3 °F /  12.4 °C 48.2 °F /  9.0 °C 29.6in /  1001.2hPa SW 4.9mph /  7.9km/h 20mph /  32.2km/h 80% 0in /  0.0mm 227.00 W/m2
12:04 54.3 °F /  12.4 °C 48.6 °F /  9.2 °C 29.6in /  1001.2hPa SSW 10.1mph /  16.3km/h 10mph /  16.1km/h 81% 0in /  0.0mm 241.00 W/m2
12:09 54.3 °F /  12.4 °C 48 °F /  8.9 °C 29.6in /  1001.2hPa WSW 8.1mph /  13.0km/h 26mph /  41.8km/h 79% 0in /  0.0mm 216.00 W/m2
12:14 54.5 °F /  12.5 °C 48.4 °F /  9.1 °C 29.6in /  1001.2hPa SW 4.9mph /  7.9km/h 19mph /  30.6km/h 80% 0in /  0.0mm 244.00 W/m2
12:19 54.7 °F /  12.6 °C 48 °F /  8.9 °C 29.6in /  1001.2hPa SW 16.1mph /  25.9km/h 20mph /  32.2km/h 78% 0in /  0.0mm 357.00 W/m2
12:24 55 °F /  12.8 °C 48.4 °F /  9.1 °C 29.6in /  1000.9hPa SW 10.1mph /  16.3km/h 13mph /  20.9km/h 78% 0in /  0.0mm 406.00 W/m2
12:29 55.6 °F /  13.1 °C 48.6 °F /  9.2 °C 29.6in /  1000.9hPa SSW 6mph /  9.7km/h 12mph /  19.3km/h 77% 0in /  0.0mm 381.00 W/m2
12:34 55.8 °F /  13.2 °C 48 °F /  8.9 °C 29.6in /  1000.6hPa South 8.9mph /  14.3km/h 18mph /  29.0km/h 75% 0in /  0.0mm 214.00 W/m2
12:39 55.6 °F /  13.1 °C 47.5 °F /  8.6 °C 29.6in /  1000.6hPa SW 2.9mph /  4.7km/h 21mph /  33.8km/h 74% 0in /  0.0mm 155.00 W/m2
12:44 55.6 °F /  13.1 °C 47.5 °F /  8.6 °C 29.5in /  1000.2hPa WSW 12.1mph /  19.5km/h 14mph /  22.5km/h 74% 0in /  0.0mm 214.00 W/m2
12:49 55.6 °F /  13.1 °C 47.8 °F /  8.8 °C 29.5in /  1000.2hPa SW 6.9mph /  11.1km/h 12mph /  19.3km/h 75% 0in /  0.0mm 176.00 W/m2
12:54 55.6 °F /  13.1 °C 47.5 °F /  8.6 °C 29.5in /  1000.2hPa South 2.9mph /  4.7km/h 9mph /  14.5km/h 74% 0in /  0.0mm 188.00 W/m2
12:59 55.6 °F /  13.1 °C 47.8 °F /  8.8 °C 29.5in /  1000.2hPa South 6mph /  9.7km/h 16mph /  25.7km/h 75% 0in /  0.0mm 132.00 W/m2
13:04 55.6 °F /  13.1 °C 47.5 °F /  8.6 °C 29.5in /  1000.2hPa WSW 4mph /  6.4km/h 18mph /  29.0km/h 74% 0in /  0.0mm 243.00 W/m2
13:09 55.6 °F /  13.1 °C 47.5 °F /  8.6 °C 29.5in /  1000.2hPa SW 13mph /  20.9km/h 18mph /  29.0km/h 74% 0in /  0.0mm 151.00 W/m2
13:14 55.6 °F /  13.1 °C 47.5 °F /  8.6 °C 29.5in /  999.9hPa SSW 8.9mph /  14.3km/h 13mph /  20.9km/h 74% 0in /  0.0mm 165.00 W/m2
13:19 55.4 °F /  13.0 °C 47.3 °F /  8.5 °C 29.5in /  999.9hPa SE 4.9mph /  7.9km/h 14mph /  22.5km/h 74% 0in /  0.0mm 137.00 W/m2
13:24 55.2 °F /  12.9 °C 47.5 °F /  8.6 °C 29.5in /  999.9hPa SSE 4.9mph /  7.9km/h 10mph /  16.1km/h 75% 0in /  0.0mm 100.00 W/m2
13:29 55.2 °F /  12.9 °C 47.1 °F /  8.4 °C 29.5in /  999.9hPa SSW 13mph /  20.9km/h 16mph /  25.7km/h 74% 0in /  0.0mm 114.00 W/m2
13:34 55.2 °F /  12.9 °C 47.1 °F /  8.4 °C 29.5in /  999.5hPa SSW 4mph /  6.4km/h 17mph /  27.4km/h 74% 0in /  0.0mm 118.00 W/m2
13:39 55 °F /  12.8 °C 46.9 °F /  8.3 °C 29.5in /  999.5hPa Calm   8mph /  12.9km/h 74% 0in /  0.0mm 111.00 W/m2
13:44 55 °F /  12.8 °C 46.9 °F /  8.3 °C 29.5in /  999.2hPa ESE 4.9mph /  7.9km/h 10mph /  16.1km/h 74% 0in /  0.0mm 98.00 W/m2
13:49 55 °F /  12.8 °C 47.3 °F /  8.5 °C 29.5in /  999.2hPa WSW 2.9mph /  4.7km/h 8mph /  12.9km/h 75% 0in /  0.0mm 88.00 W/m2
13:54 55 °F /  12.8 °C 47.3 °F /  8.5 °C 29.5in /  998.9hPa South 2mph /  3.2km/h 4mph /  6.4km/h 75% 0in /  0.0mm 95.00 W/m2
13:59 55 °F /  12.8 °C 47.3 °F /  8.5 °C 29.5in /  998.9hPa SW 2mph /  3.2km/h 8mph /  12.9km/h 75% 0in /  0.0mm 90.00 W/m2
14:04 54.9 °F /  12.7 °C 47.1 °F /  8.4 °C 29.5in /  998.5hPa SW 4.9mph /  7.9km/h 12mph /  19.3km/h 75% 0in /  0.0mm 72.00 W/m2
14:09 54.9 °F /  12.7 °C 47.1 °F /  8.4 °C 29.5in /  998.5hPa South 6mph /  9.7km/h 9mph /  14.5km/h 75% 0in /  0.0mm 60.00 W/m2
14:14 54.7 °F /  12.6 °C 47.3 °F /  8.5 °C 29.5in /  998.5hPa SSW 6.9mph /  11.1km/h 15mph /  24.1km/h 76% 0in /  0.0mm 63.00 W/m2
14:19 54.7 °F /  12.6 °C 47.7 °F /  8.7 °C 29.5in /  998.5hPa SW 4mph /  6.4km/h 10mph /  16.1km/h 77% 0in /  0.0mm 62.00 W/m2
14:24 54.7 °F /  12.6 °C 47.7 °F /  8.7 °C 29.5in /  998.2hPa SSW 12.1mph /  19.5km/h 17mph /  27.4km/h 77% 0in /  0.0mm 51.00 W/m2
14:29 54.7 °F /  12.6 °C 47.7 °F /  8.7 °C 29.5in /  997.9hPa SW 6.9mph /  11.1km/h 17mph /  27.4km/h 77% 0in /  0.0mm 39.00 W/m2
14:34 54.7 °F /  12.6 °C 48 °F /  8.9 °C 29.5in /  997.9hPa SSE 11mph /  17.7km/h 11mph /  17.7km/h 78% 0in /  0.0mm 44.00 W/m2
14:39 54.7 °F /  12.6 °C 48 °F /  8.9 °C 29.5in /  997.9hPa WSW 8.9mph /  14.3km/h 17mph /  27.4km/h 78% 0in /  0.0mm 39.00 W/m2
14:44 54.7 °F /  12.6 °C 48.4 °F /  9.1 °C 29.5in /  997.9hPa SW 4.9mph /  7.9km/h 15mph /  24.1km/h 79% 0in /  0.0mm 35.00 W/m2
14:49 54.5 °F /  12.5 °C 47.8 °F /  8.8 °C 29.5in /  997.5hPa West 6.9mph /  11.1km/h 16mph /  25.7km/h 78% 0in /  0.0mm 40.00 W/m2
14:54 54.3 °F /  12.4 °C 48 °F /  8.9 °C 29.5in /  997.5hPa SSE 12.1mph /  19.5km/h 15mph /  24.1km/h 79% 0in /  0.0mm 33.00 W/m2
14:59 54.3 °F /  12.4 °C 48 °F /  8.9 °C 29.5in /  997.5hPa South 8.9mph /  14.3km/h 16mph /  25.7km/h 79% 0in /  0.0mm 28.00 W/m2
15:04 54.5 °F /  12.5 °C 48.2 °F /  9.0 °C 29.5in /  997.2hPa South 6mph /  9.7km/h 16mph /  25.7km/h 79% 0in /  0.0mm 25.00 W/m2
15:09 54.5 °F /  12.5 °C 47.8 °F /  8.8 °C 29.5in /  997.2hPa SW 17.9mph /  28.8km/h 18mph /  29.0km/h 78% 0in /  0.0mm 25.00 W/m2
15:14 54.5 °F /  12.5 °C 47.8 °F /  8.8 °C 29.4in /  996.8hPa SSW 6mph /  9.7km/h 11mph /  17.7km/h 78% 0in /  0.0mm 19.00 W/m2
15:19 54.3 °F /  12.4 °C 47.7 °F /  8.7 °C 29.4in /  996.8hPa SSE 4mph /  6.4km/h 11mph /  17.7km/h 78% 0in /  0.0mm 14.00 W/m2
15:24 54.5 °F /  12.5 °C 48.2 °F /  9.0 °C 29.4in /  996.5hPa SSW 4mph /  6.4km/h 15mph /  24.1km/h 79% 0in /  0.0mm 9.00 W/m2
15:29 54.7 °F /  12.6 °C 48.4 °F /  9.1 °C 29.4in /  996.5hPa SSW 8.1mph /  13.0km/h 14mph /  22.5km/h 79% 0in /  0.0mm 5.00 W/m2
15:34 54.5 °F /  12.5 °C 48.2 °F /  9.0 °C 29.4in /  996.2hPa West 6mph /  9.7km/h 22mph /  35.4km/h 79% 0in /  0.0mm 11.00 W/m2
15:39 54.5 °F /  12.5 °C 48.2 °F /  9.0 °C 29.4in /  996.2hPa South 4.9mph /  7.9km/h 18mph /  29.0km/h 79% 0in /  0.0mm 14.00 W/m2
15:44 54.3 °F /  12.4 °C 48 °F /  8.9 °C 29.4in /  996.2hPa SSW 8.1mph /  13.0km/h 24mph /  38.6km/h 79% 0in /  0.0mm 14.00 W/m2
15:49 54.5 °F /  12.5 °C 48.2 °F /  9.0 °C 29.4in /  995.8hPa SSE 14.1mph /  22.7km/h 20mph /  32.2km/h 79% 0in /  0.0mm 12.00 W/m2
15:54 54.7 °F /  12.6 °C 48.4 °F /  9.1 °C 29.4in /  995.8hPa SE 6mph /  9.7km/h 17mph /  27.4km/h 79% 0in /  0.0mm 11.00 W/m2
15:59 54.7 °F /  12.6 °C 48.4 °F /  9.1 °C 29.4in /  995.8hPa South 8.1mph /  13.0km/h 21mph /  33.8km/h 79% 0in /  0.0mm 7.00 W/m2
16:04 54.7 °F /  12.6 °C 48.4 °F /  9.1 °C 29.4in /  995.5hPa SE 4.9mph /  7.9km/h 16mph /  25.7km/h 79% 0in /  0.0mm 0.00 W/m2
16:09 54.5 °F /  12.5 °C 48.2 °F /  9.0 °C 29.4in /  995.1hPa SSW 10.1mph /  16.3km/h 20mph /  32.2km/h 79% 0in /  0.0mm 0.00 W/m2
16:14 54.5 °F /  12.5 °C 48.2 °F /  9.0 °C 29.4in /  995.1hPa South 13mph /  20.9km/h 14mph /  22.5km/h 79% 0in /  0.0mm 0.00 W/m2
16:19 54.5 °F /  12.5 °C 48.2 °F /  9.0 °C 29.4in /  995.1hPa SSW 6mph /  9.7km/h 23mph /  37.0km/h 79% 0in /  0.0mm 0.00 W/m2
16:24 54.1 °F /  12.3 °C 48 °F /  8.9 °C 29.4in /  995.1hPa SW 21mph /  33.8km/h 21mph /  33.8km/h 80% 0.01in /  0.3mm 0.00 W/m2
16:29 54 °F /  12.2 °C 48.2 °F /  9.0 °C 29.4in /  994.8hPa SSE 12.1mph /  19.5km/h 12mph /  19.3km/h 81% 0.01in /  0.3mm 0.00 W/m2
16:34 53.8 °F /  12.1 °C 48.4 °F /  9.1 °C 29.4in /  994.8hPa SSW 6mph /  9.7km/h 17mph /  27.4km/h 82% 0.01in /  0.3mm 0.00 W/m2
16:39 53.6 °F /  12.0 °C 48.2 °F /  9.0 °C 29.4in /  994.8hPa ESE 10.1mph /  16.3km/h 19mph /  30.6km/h 82% 0.01in /  0.3mm 0.00 W/m2
16:44 53.2 °F /  11.8 °C 48.2 °F /  9.0 °C 29.4in /  994.8hPa SSW 6.9mph /  11.1km/h 16mph /  25.7km/h 83% 0.01in /  0.3mm 0.00 W/m2
16:49 53.2 °F /  11.8 °C 48.6 °F /  9.2 °C 29.4in /  994.5hPa SSE 6.9mph /  11.1km/h 17mph /  27.4km/h 84% 0.02in /  0.5mm 0.00 W/m2
16:54 53.1 °F /  11.7 °C 48.7 °F /  9.3 °C 29.4in /  994.1hPa SE 8.1mph /  13.0km/h 19mph /  30.6km/h 85% 0.02in /  0.5mm 0.00 W/m2
16:59 52.9 °F /  11.6 °C 48.6 °F /  9.2 °C 29.4in /  994.1hPa South 17mph /  27.4km/h 23mph /  37.0km/h 85% 0.02in /  0.5mm 0.00 W/m2
17:04 52.5 °F /  11.4 °C 48.4 °F /  9.1 °C 29.4in /  994.1hPa SSE 4.9mph /  7.9km/h 13mph /  20.9km/h 86% 0.03in /  0.8mm 0.00 W/m2
17:09 52.3 °F /  11.3 °C 48.6 °F /  9.2 °C 29.4in /  993.8hPa SE 8.9mph /  14.3km/h 15mph /  24.1km/h 87% 0.04in /  1.0mm 0.00 W/m2
17:14 52.3 °F /  11.3 °C 48.9 °F /  9.4 °C 29.4in /  993.8hPa SSE 6.9mph /  11.1km/h 28mph /  45.1km/h 88% 0.05in /  1.3mm 0.00 W/m2
17:19 52.2 °F /  11.2 °C 48.7 °F /  9.3 °C 29.3in /  993.5hPa South 6mph /  9.7km/h 17mph /  27.4km/h 88% 0.05in /  1.3mm 0.00 W/m2
17:24 52.2 °F /  11.2 °C 49.1 °F /  9.5 °C 29.3in /  993.5hPa ESE 4.9mph /  7.9km/h 17mph /  27.4km/h 89% 0.05in /  1.3mm 0.00 W/m2
17:29 52.2 °F /  11.2 °C 49.1 °F /  9.5 °C 29.3in /  993.1hPa South 11mph /  17.7km/h 23mph /  37.0km/h 89% 0.05in /  1.3mm 0.00 W/m2
17:34 52.3 °F /  11.3 °C 49.3 °F /  9.6 °C 29.3in /  992.8hPa South 19mph /  30.6km/h 19mph /  30.6km/h 89% 0.06in /  1.5mm 0.00 W/m2
17:39 52.3 °F /  11.3 °C 49.3 °F /  9.6 °C 29.3in /  993.1hPa ESE 10.1mph /  16.3km/h 26mph /  41.8km/h 89% 0.06in /  1.5mm 0.00 W/m2
17:44 52.2 °F /  11.2 °C 48.7 °F /  9.3 °C 29.3in /  993.1hPa South 6.9mph /  11.1km/h 17mph /  27.4km/h 88% 0.06in /  1.5mm 0.00 W/m2
17:49 52.2 °F /  11.2 °C 48.7 °F /  9.3 °C 29.3in /  993.1hPa South 10.1mph /  16.3km/h 27mph /  43.4km/h 88% 0.06in /  1.5mm 0.00 W/m2
17:54 52 °F /  11.1 °C 48.6 °F /  9.2 °C 29.3in /  992.8hPa SSW 6.9mph /  11.1km/h 20mph /  32.2km/h 88% 0.05in /  1.3mm 0.00 W/m2
17:59 51.8 °F /  11.0 °C 48.4 °F /  9.1 °C 29.3in /  992.8hPa South 8.1mph /  13.0km/h 15mph /  24.1km/h 88% 0.06in /  1.5mm 0.00 W/m2
18:04 51.6 °F /  10.9 °C 48.2 °F /  9.0 °C 29.3in /  992.8hPa SSE 25.9mph /  41.7km/h 28mph /  45.1km/h 88% 0.05in /  1.3mm 0.00 W/m2
18:09 51.4 °F /  10.8 °C 48 °F /  8.9 °C 29.3in /  992.4hPa SSE 11mph /  17.7km/h 20mph /  32.2km/h 88% 0.04in /  1.0mm 0.00 W/m2
18:14 51.4 °F /  10.8 °C 48 °F /  8.9 °C 29.3in /  992.4hPa South 8.1mph /  13.0km/h 23mph /  37.0km/h 88% 0.04in /  1.0mm 0.00 W/m2
18:19 51.4 °F /  10.8 °C 48.4 °F /  9.1 °C 29.3in /  992.1hPa SSE 6mph /  9.7km/h 25mph /  40.2km/h 89% 0.05in /  1.3mm 0.00 W/m2
18:24 51.3 °F /  10.7 °C 48.2 °F /  9.0 °C 29.3in /  992.1hPa South 8.9mph /  14.3km/h 19mph /  30.6km/h 89% 0.05in /  1.3mm 0.00 W/m2
18:29 51.3 °F /  10.7 °C 48.2 °F /  9.0 °C 29.3in /  991.8hPa SSW 16.1mph /  25.9km/h 23mph /  37.0km/h 89% 0.06in /  1.5mm 0.00 W/m2
18:34 51.3 °F /  10.7 °C 48.2 °F /  9.0 °C 29.3in /  991.8hPa SSE 12.1mph /  19.5km/h 34mph /  54.7km/h 89% 0.05in /  1.3mm 0.00 W/m2
18:39 51.3 °F /  10.7 °C 48.2 °F /  9.0 °C 29.3in /  991.4hPa SSE 10.1mph /  16.3km/h 23mph /  37.0km/h 89% 0.05in /  1.3mm 0.00 W/m2
18:44 51.1 °F /  10.6 °C 48 °F /  8.9 °C 29.3in /  991.4hPa SE 8.9mph /  14.3km/h 20mph /  32.2km/h 89% 0.05in /  1.3mm 0.00 W/m2
18:49 51.1 °F /  10.6 °C 48.2 °F /  9.0 °C 29.3in /  991.4hPa South 13mph /  20.9km/h 23mph /  37.0km/h 90% 0.05in /  1.3mm 0.00 W/m2
18:54 50.9 °F /  10.5 °C 48 °F /  8.9 °C 29.3in /  991.4hPa SE 8.1mph /  13.0km/h 16mph /  25.7km/h 90% 0.06in /  1.5mm 0.00 W/m2
18:59 50.9 °F /  10.5 °C 48.4 °F /  9.1 °C 29.3in /  991.4hPa SSE 8.9mph /  14.3km/h 21mph /  33.8km/h 91% 0.06in /  1.5mm 0.00 W/m2
19:04 51.1 °F /  10.6 °C 48.6 °F /  9.2 °C 29.3in /  991.4hPa South 6mph /  9.7km/h 13mph /  20.9km/h 91% 0.06in /  1.5mm 0.00 W/m2
19:09 51.1 °F /  10.6 °C 48.9 °F /  9.4 °C 29.3in /  991.4hPa SSW 8.1mph /  13.0km/h 16mph /  25.7km/h 92% 0.06in /  1.5mm 0.00 W/m2
19:14 51.3 °F /  10.7 °C 48.7 °F /  9.3 °C 29.3in /  991.4hPa SSE 13mph /  20.9km/h 18mph /  29.0km/h 91% 0.06in /  1.5mm 0.00 W/m2
19:19 51.3 °F /  10.7 °C 49.1 °F /  9.5 °C 29.3in /  991.1hPa South 8.9mph /  14.3km/h 13mph /  20.9km/h 92% 0.07in /  1.8mm 0.00 W/m2
19:24 51.3 °F /  10.7 °C 49.1 °F /  9.5 °C 29.3in /  991.1hPa ESE 11mph /  17.7km/h 16mph /  25.7km/h 92% 0.08in /  2.0mm 0.00 W/m2
19:29 51.1 °F /  10.6 °C 48.9 °F /  9.4 °C 29.3in /  991.1hPa SE 12.1mph /  19.5km/h 15mph /  24.1km/h 92% 0.08in /  2.0mm 0.00 W/m2
19:34 51.3 °F /  10.7 °C 49.1 °F /  9.5 °C 29.3in /  990.7hPa South 15mph /  24.1km/h 19mph /  30.6km/h 92% 0.09in /  2.3mm 0.00 W/m2
19:39 51.4 °F /  10.8 °C 49.3 °F /  9.6 °C 29.3in /  990.7hPa South 6.9mph /  11.1km/h 16mph /  25.7km/h 92% 0.1in /  2.5mm 0.00 W/m2
19:44 51.6 °F /  10.9 °C 49.5 °F /  9.7 °C 29.3in /  990.7hPa SE 4.9mph /  7.9km/h 14mph /  22.5km/h 92% 0.11in /  2.8mm 0.00 W/m2
19:49 51.4 °F /  10.8 °C 49.3 °F /  9.6 °C 29.2in /  990.4hPa SSW 6.9mph /  11.1km/h 23mph /  37.0km/h 92% 0.11in /  2.8mm 0.00 W/m2
19:54 51.6 °F /  10.9 °C 49.5 °F /  9.7 °C 29.2in /  990.4hPa East 6.9mph /  11.1km/h 18mph /  29.0km/h 92% 0.11in /  2.8mm 0.00 W/m2
19:59 51.6 °F /  10.9 °C 49.5 °F /  9.7 °C 29.2in /  990.4hPa SSW 12.1mph /  19.5km/h 18mph /  29.0km/h 92% 0.12in /  3.0mm 0.00 W/m2
20:04 51.8 °F /  11.0 °C 49.6 °F /  9.8 °C 29.2in /  990.4hPa South 17mph /  27.4km/h 17mph /  27.4km/h 92% 0.13in /  3.3mm 0.00 W/m2
20:09 51.8 °F /  11.0 °C 49.6 °F /  9.8 °C 29.2in /  990.4hPa South 6mph /  9.7km/h 14mph /  22.5km/h 92% 0.14in /  3.6mm 0.00 W/m2
20:14 51.8 °F /  11.0 °C 49.6 °F /  9.8 °C 29.2in /  990.1hPa SE 6.9mph /  11.1km/h 10mph /  16.1km/h 92% 0.17in /  4.3mm 0.00 W/m2
20:19 52 °F /  11.1 °C 50 °F /  10.0 °C 29.2in /  989.7hPa West 15mph /  24.1km/h 23mph /  37.0km/h 93% 0.17in /  4.3mm 0.00 W/m2
20:24 52 °F /  11.1 °C 49.6 °F /  9.8 °C 29.2in /  990.1hPa SSW 6mph /  9.7km/h 18mph /  29.0km/h 92% 0.17in /  4.3mm 0.00 W/m2
20:29 52.3 °F /  11.3 °C 50.4 °F /  10.2 °C 29.2in /  990.1hPa SSE 2mph /  3.2km/h 14mph /  22.5km/h 93% 0.17in /  4.3mm 0.00 W/m2
20:34 52.3 °F /  11.3 °C 50 °F /  10.0 °C 29.2in /  990.1hPa South 11mph /  17.7km/h 16mph /  25.7km/h 92% 0.17in /  4.3mm 0.00 W/m2
20:39 52.5 °F /  11.4 °C 50.2 °F /  10.1 °C 29.2in /  989.7hPa SW 4mph /  6.4km/h 16mph /  25.7km/h 92% 0.18in /  4.6mm 0.00 W/m2
20:43 52.5 °F /  11.4 °C 50.2 °F /  10.1 °C 29.2in /  990.1hPa South 11mph /  17.7km/h 18mph /  29.0km/h 92% 0.19in /  4.8mm 0.00 W/m2
20:49 52.7 °F /  11.5 °C 50.7 °F /  10.4 °C 29.2in /  990.1hPa WSW 10.1mph /  16.3km/h 16mph /  25.7km/h 93% 0.2in /  5.1mm 0.00 W/m2
20:54 52.9 °F /  11.6 °C 50.9 °F /  10.5 °C 29.2in /  989.7hPa SW 6.9mph /  11.1km/h 11mph /  17.7km/h 93% 0.21in /  5.3mm 0.00 W/m2
20:59 52.9 °F /  11.6 °C 50.5 °F /  10.3 °C 29.2in /  989.7hPa SW 2mph /  3.2km/h 11mph /  17.7km/h 92% 0.21in /  5.3mm 0.00 W/m2
21:04 52.9 °F /  11.6 °C 50.5 °F /  10.3 °C 29.2in /  989.4hPa ESE 4.9mph /  7.9km/h 9mph /  14.5km/h 92% 0.2in /  5.1mm 0.00 W/m2
21:09 52.9 °F /  11.6 °C 50.5 °F /  10.3 °C 29.2in /  989.4hPa NNW 0.9mph /  1.4km/h 9mph /  14.5km/h 92% 0.2in /  5.1mm 0.00 W/m2
21:14 52.9 °F /  11.6 °C 50.9 °F /  10.5 °C 29.2in /  989.1hPa SE 2.9mph /  4.7km/h 6mph /  9.7km/h 93% 0.17in /  4.3mm 0.00 W/m2
21:19 52.9 °F /  11.6 °C 50.5 °F /  10.3 °C 29.2in /  989.1hPa SW 4.9mph /  7.9km/h 8mph /  12.9km/h 92% 0.15in /  3.8mm 0.00 W/m2
21:24 53.1 °F /  11.7 °C 51.1 °F /  10.6 °C 29.2in /  989.1hPa SE 4mph /  6.4km/h 10mph /  16.1km/h 93% 0.14in /  3.6mm 0.00 W/m2
21:29 53.2 °F /  11.8 °C 51.3 °F /  10.7 °C 29.2in /  989.1hPa SE 8.1mph /  13.0km/h 9mph /  14.5km/h 93% 0.12in /  3.0mm 0.00 W/m2
21:34 53.4 °F /  11.9 °C 51.4 °F /  10.8 °C 29.2in /  989.1hPa SW 4mph /  6.4km/h 17mph /  27.4km/h 93% 0.11in /  2.8mm 0.00 W/m2
21:39 53.6 °F /  12.0 °C 51.3 °F /  10.7 °C 29.2in /  988.7hPa South 6mph /  9.7km/h 14mph /  22.5km/h 92% 0.09in /  2.3mm 0.00 W/m2
21:44 53.8 °F /  12.1 °C 51.4 °F /  10.8 °C 29.2in /  988.7hPa SSW 6mph /  9.7km/h 18mph /  29.0km/h 92% 0.07in /  1.8mm 0.00 W/m2
21:49 54 °F /  12.2 °C 51.6 °F /  10.9 °C 29.2in /  988.7hPa WSW 8.9mph /  14.3km/h 11mph /  17.7km/h 92% 0.06in /  1.5mm 0.00 W/m2
21:54 54 °F /  12.2 °C 51.6 °F /  10.9 °C 29.2in /  988.7hPa WSW 8.1mph /  13.0km/h 11mph /  17.7km/h 92% 0.05in /  1.3mm 0.00 W/m2
21:59 54.1 °F /  12.3 °C 51.8 °F /  11.0 °C 29.2in /  988.7hPa West 6.9mph /  11.1km/h 16mph /  25.7km/h 92% 0.04in /  1.0mm 0.00 W/m2
22:04 54.3 °F /  12.4 °C 52 °F /  11.1 °C 29.2in /  988.7hPa South 12.1mph /  19.5km/h 17mph /  27.4km/h 92% 0.03in /  0.8mm 0.00 W/m2
22:09 54.5 °F /  12.5 °C 52 °F /  11.1 °C 29.2in /  988.4hPa SSW 8.9mph /  14.3km/h 16mph /  25.7km/h 91% 0.02in /  0.5mm 0.00 W/m2
22:14 54.5 °F /  12.5 °C 52 °F /  11.1 °C 29.2in /  988.4hPa WSW 10.1mph /  16.3km/h 21mph /  33.8km/h 91% 0.02in /  0.5mm 0.00 W/m2
22:19 54.5 °F /  12.5 °C 52 °F /  11.1 °C 29.2in /  988.4hPa SW 11mph /  17.7km/h 11mph /  17.7km/h 91% 0.04in /  1.0mm 0.00 W/m2
22:24 54.5 °F /  12.5 °C 52 °F /  11.1 °C 29.2in /  988.4hPa SW 8.9mph /  14.3km/h 15mph /  24.1km/h 91% 0.05in /  1.3mm 0.00 W/m2
22:29 54.5 °F /  12.5 °C 52 °F /  11.1 °C 29.2in /  988.4hPa SSE 6.9mph /  11.1km/h 10mph /  16.1km/h 91% 0.06in /  1.5mm 0.00 W/m2
22:34 54.5 °F /  12.5 °C 52.2 °F /  11.2 °C 29.2in /  988.7hPa SW 13mph /  20.9km/h 15mph /  24.1km/h 92% 0.06in /  1.5mm 0.00 W/m2
22:39 54.7 °F /  12.6 °C 52.3 °F /  11.3 °C 29.2in /  988.7hPa SW 4.9mph /  7.9km/h 19mph /  30.6km/h 92% 0.09in /  2.3mm 0.00 W/m2
22:44 54.3 °F /  12.4 °C 52 °F /  11.1 °C 29.2in /  988.7hPa West 8.1mph /  13.0km/h 10mph /  16.1km/h 92% 0.09in /  2.3mm 0.00 W/m2
22:49 54.1 °F /  12.3 °C 51.8 °F /  11.0 °C 29.2in /  988.7hPa SW 4mph /  6.4km/h 5mph /  8.0km/h 92% 0.09in /  2.3mm 0.00 W/m2
22:54 54.1 °F /  12.3 °C 51.8 °F /  11.0 °C 29.2in /  988.7hPa SW 4.9mph /  7.9km/h 5mph /  8.0km/h 92% 0.09in /  2.3mm 0.00 W/m2
22:59 53.8 °F /  12.1 °C 51.4 °F /  10.8 °C 29.2in /  989.1hPa SSW 6mph /  9.7km/h 10mph /  16.1km/h 92% 0.09in /  2.3mm 0.00 W/m2
23:03 53.6 °F /  12.0 °C 51.3 °F /  10.7 °C 29.2in /  989.1hPa WSW 2.9mph /  4.7km/h 8mph /  12.9km/h 92% 0.09in /  2.3mm 0.00 W/m2
23:09 53.4 °F /  11.9 °C 51.1 °F /  10.6 °C 29.2in /  989.1hPa SW 4.9mph /  7.9km/h 12mph /  19.3km/h 92% 0.09in /  2.3mm 0.00 W/m2
23:14 53.1 °F /  11.7 °C 50.5 °F /  10.3 °C 29.2in /  989.1hPa West 2.9mph /  4.7km/h 11mph /  17.7km/h 91% 0.09in /  2.3mm 0.00 W/m2
23:19 53.1 °F /  11.7 °C 50.5 °F /  10.3 °C 29.2in /  989.4hPa WNW 6.9mph /  11.1km/h 10mph /  16.1km/h 91% 0.09in /  2.3mm 0.00 W/m2
23:24 52.5 °F /  11.4 °C 50 °F /  10.0 °C 29.2in /  989.4hPa West 4mph /  6.4km/h 9mph /  14.5km/h 91% 0.09in /  2.3mm 0.00 W/m2
23:29 52.5 °F /  11.4 °C 50 °F /  10.0 °C 29.2in /  989.4hPa West 2.9mph /  4.7km/h 5mph /  8.0km/h 91% 0.09in /  2.3mm 0.00 W/m2
23:33 52.5 °F /  11.4 °C 50 °F /  10.0 °C 29.2in /  989.7hPa SW 2.9mph /  4.7km/h 10mph /  16.1km/h 91% 0.09in /  2.3mm 0.00 W/m2
23:39 52.3 °F /  11.3 °C 49.8 °F /  9.9 °C 29.2in /  989.7hPa WSW 4.9mph /  7.9km/h 6mph /  9.7km/h 91% 0.07in /  1.8mm 0.00 W/m2
23:44 52.2 °F /  11.2 °C 49.6 °F /  9.8 °C 29.2in /  989.7hPa SSW 2.9mph /  4.7km/h 7mph /  11.3km/h 91% 0.08in /  2.0mm 0.00 W/m2
23:49 52 °F /  11.1 °C 49.5 °F /  9.7 °C 29.2in /  989.4hPa SW 0.9mph /  1.4km/h 8mph /  12.9km/h 91% 0.09in /  2.3mm 0.00 W/m2
23:54 52 °F /  11.1 °C 49.5 °F /  9.7 °C 29.2in /  989.4hPa SW 4mph /  6.4km/h 7mph /  11.3km/h 91% 0.1in /  2.5mm 0.00 W/m2
23:59 51.8 °F /  11.0 °C 49.3 °F /  9.6 °C 29.2in /  989.1hPa SW 6mph /  9.7km/h 9mph /  14.5km/h 91% 0.1in /  2.5mm 0.00 W/m2